CheckWX is a tool to help pilots better visualize weather data.  It is not intended as a substitute for an official pre-flight weather briefing.

12:26:54 UTC

DNMN TAF
Minna Airport
Minna, Nigeria
TAF DNMN 212130Z 2200/2306 02015KT 9999 TS FEW013 FEW019CB BECMG 2200/2202 02004KT CAVOK

Mar-22@
00:00 UTC

Mar-22 @ 00:00 UTC

Mar-23@
06:00 UTC

Mar-23 @ 06:00 UTC

TAF DNMN 212130Z 2200/2306 02015KT 9999 TS FEW013 FEW019CB
Wind
  • 020° at 15 KTS
Conditions
Thunderstorm
Cloud Levels
  • Few at 1,300' AGL
  • Few at 1,900' AGL

Mar-22@
00:00 UTC

Mar-22 @ 00:00 UTC

Mar-23@
06:00 UTC

Mar-23 @ 06:00 UTC

BECMG 2200/2202 02004KT CAVOK

Becoming

Becoming Conditions expected by Fri, Mar 22, 2019 @ 02:00 UTC

Wind
  • 020° at 4 KTS
Conditions
No significant weather
Cloud Levels
  • No significant clouds